createdAt,value
2019-03-08T00:02:16.511Z,97357.78
2019-03-08T00:07:22.942Z,97359.17
2019-03-08T00:12:29.326Z,97370.52
2019-03-08T00:17:34.529Z,97366.81
2019-03-08T00:22:40.107Z,97371.84
2019-03-08T00:27:45.351Z,97371.33
2019-03-08T00:32:50.716Z,97378.59
2019-03-08T00:37:55.979Z,97383.08
2019-03-08T00:43:02.660Z,97394.38
2019-03-08T00:48:08.771Z,97400.95
2019-03-08T00:53:15.678Z,97412.86
2019-03-08T00:58:21.114Z,97421.33
2019-03-08T01:03:26.376Z,97424.74
2019-03-08T01:08:31.757Z,97436.74
2019-03-08T01:13:37.563Z,97437.31
2019-03-08T01:18:42.749Z,97436.12
2019-03-08T01:23:47.997Z,97451.06
2019-03-08T01:28:53.524Z,97449.67
2019-03-08T01:33:58.760Z,97442.75
2019-03-08T01:39:05.236Z,97448.88
2019-03-08T01:44:12.492Z,97424.71
2019-03-08T01:49:18.091Z,97445.82
2019-03-08T01:54:23.487Z,97443.73
2019-03-08T01:59:28.682Z,97449.67
2019-03-08T02:04:33.911Z,97454.48
2019-03-08T02:09:39.833Z,97422.91
2019-03-08T02:14:45.809Z,97434.80
2019-03-08T02:19:51.781Z,97448.34
2019-03-08T02:24:56.964Z,97456.59
2019-03-08T02:30:02.152Z,97441.84
2019-03-08T02:35:08.039Z,97447.20
2019-03-08T02:40:41.509Z,97467.41
2019-03-08T02:45:46.839Z,97450.02
2019-03-08T02:50:52.008Z,97452.95
2019-03-08T02:55:58.332Z,97448.19
2019-03-08T03:01:03.615Z,97459.66
2019-03-08T03:06:09.172Z,97455.67
2019-03-08T03:11:14.426Z,97447.84
2019-03-08T03:16:19.798Z,97458.67
2019-03-08T03:21:25.143Z,97459.59
2019-03-08T03:26:30.334Z,97465.85
2019-03-08T03:31:35.602Z,97479.97
2019-03-08T03:36:41.021Z,97477.25
2019-03-08T03:41:46.640Z,97465.94
2019-03-08T03:46:51.897Z,97473.05
2019-03-08T03:51:57.080Z,97478.28
2019-03-08T03:57:02.295Z,97490.31
2019-03-08T04:07:18.807Z,97496.86
2019-03-08T04:12:24.363Z,97509.94
2019-03-08T04:17:29.596Z,97507.45
2019-03-08T04:22:34.904Z,97507.39
2019-03-08T04:27:41.706Z,97524.86
2019-03-08T04:32:47.068Z,97527.63
2019-03-08T04:37:52.350Z,97536.05
2019-03-08T04:42:57.901Z,97538.47
2019-03-08T04:48:03.084Z,97550.09
2019-03-08T04:53:08.319Z,97558.14
2019-03-08T04:58:13.523Z,97551.31
2019-03-08T05:03:18.885Z,97566.80
2019-03-08T05:08:24.288Z,97587.78
2019-03-08T05:13:29.676Z,97564.58
2019-03-08T05:18:34.874Z,97566.80
2019-03-08T05:23:40.220Z,97588.80
2019-03-08T05:28:45.889Z,97585.02
2019-03-08T05:33:51.187Z,97585.80
2019-03-08T05:38:56.667Z,97591.15
2019-03-08T05:44:02.028Z,97606.67
2019-03-08T05:49:07.376Z,97610.30
2019-03-08T05:57:57.140Z,97623.77
2019-03-08T06:03:02.673Z,97630.59
2019-03-08T06:08:07.960Z,97631.99
2019-03-08T06:13:13.174Z,97638.73
2019-03-08T06:18:18.769Z,97652.13
2019-03-08T06:23:23.948Z,97662.66
2019-03-08T06:28:29.440Z,97675.50
2019-03-08T06:33:34.715Z,97688.14
2019-03-08T06:38:40.275Z,97691.06
2019-03-08T06:43:45.520Z,97705.22
2019-03-08T06:48:50.805Z,97718.80
2019-03-08T06:53:56.012Z,97726.25
2019-03-08T06:59:26.228Z,97740.64
2019-03-08T07:04:31.481Z,97755.09
2019-03-08T07:09:37.768Z,97767.97
2019-03-08T07:14:43.103Z,97782.12
2019-03-08T07:19:55.480Z,97806.73
2019-03-08T07:25:18.417Z,97808.58
2019-03-08T07:30:43.581Z,97817.75
2019-03-08T07:36:00.519Z,97833.09
2019-03-08T07:41:23.609Z,97850.83
2019-03-08T07:46:51.627Z,97872.88
2019-03-08T07:52:08.768Z,97895.45
2019-03-08T07:57:25.031Z,97941.59
2019-03-08T08:02:39.347Z,97941.59
2019-03-08T08:08:12.986Z,97955.33
2019-03-08T08:13:28.870Z,97967.74
2019-03-08T08:18:55.535Z,97997.47
2019-03-08T08:24:26.233Z,98006.86
2019-03-08T08:29:49.360Z,98019.50
2019-03-08T08:35:01.830Z,98026.52
2019-03-08T08:40:16.002Z,98037.84
2019-03-08T08:45:43.616Z,98046.02
2019-03-08T08:51:17.025Z,98058.31
2019-03-08T08:56:42.185Z,98068.94
2019-03-08T09:02:12.504Z,98080.62
2019-03-08T09:07:24.889Z,98087.84
2019-03-08T09:12:53.997Z,98097.37
2019-03-08T09:18:18.503Z,98106.30
2019-03-08T09:23:32.283Z,98118.20
2019-03-08T09:28:45.415Z,98130.86
2019-03-08T09:34:07.113Z,98138.21
2019-03-08T09:39:32.489Z,98148.33
2019-03-08T09:44:56.696Z,98149.09
2019-03-08T09:50:19.767Z,98169.09
2019-03-08T09:55:39.321Z,98176.58
2019-03-08T10:01:16.224Z,98187.80
2019-03-08T10:06:31.660Z,98196.34
2019-03-08T10:11:59.064Z,98198.88
2019-03-08T10:17:26.454Z,98203.82
2019-03-08T10:23:01.313Z,98218.77
2019-03-08T10:28:24.582Z,98217.02
2019-03-08T10:33:47.765Z,98220.39
2019-03-08T10:39:04.308Z,98222.05
2019-03-08T10:44:29.864Z,98235.42
2019-03-08T10:49:57.167Z,98232.20
2019-03-08T10:55:20.063Z,98234.91
2019-03-08T11:00:44.315Z,98230.58
2019-03-08T11:06:07.597Z,98236.36
2019-03-08T11:11:41.353Z,98242.87
2019-03-08T11:17:18.710Z,98252.08
2019-03-08T11:22:43.289Z,98270.37
2019-03-08T11:28:07.719Z,98267.78
2019-03-08T11:33:33.622Z,98272.70
2019-03-08T11:39:01.333Z,98285.34
2019-03-08T11:44:31.738Z,98288.34
2019-03-08T11:49:55.997Z,98294.67
2019-03-08T11:55:20.592Z,98299.53
2019-03-08T12:00:54.230Z,98302.65
2019-03-08T12:06:18.549Z,98307.36
2019-03-08T12:11:41.594Z,98327.42
2019-03-08T12:17:09.113Z,98319.98
2019-03-08T12:22:23.903Z,98332.13
2019-03-08T12:28:03.683Z,98336.13
2019-03-08T12:33:28.219Z,98345.03
2019-03-08T12:38:42.345Z,98341.76
2019-03-08T12:44:05.657Z,98345.56
2019-03-08T12:49:29.284Z,98340.74
2019-03-08T12:54:52.721Z,98344.34
2019-03-08T13:00:05.237Z,98345.81
2019-03-08T13:05:35.452Z,98346.93
2019-03-08T13:10:41.482Z,98348.02
2019-03-08T13:15:49.596Z,98334.11
2019-03-08T13:20:56.809Z,98336.24
2019-03-08T13:26:02.861Z,98327.47
2019-03-08T13:31:10.169Z,98331.41
2019-03-08T13:36:17.635Z,98325.13
2019-03-08T13:41:24.148Z,98327.83
2019-03-08T13:46:29.720Z,98340.14
2019-03-08T13:51:35.780Z,98346.59
2019-03-08T13:56:41.449Z,98352.81
2019-03-08T14:01:46.825Z,98349.30
2019-03-08T14:06:52.093Z,98363.66
2019-03-08T14:11:57.332Z,98365.58
2019-03-08T14:17:03.116Z,98364.30
2019-03-08T14:22:08.440Z,98367.16
2019-03-08T14:27:13.744Z,98359.91
2019-03-08T14:32:21.158Z,98352.66
2019-03-08T14:37:28.923Z,98343.15
2019-03-08T14:42:53.336Z,98350.78
2019-03-08T14:47:59.981Z,98365.63
2019-03-08T14:53:05.694Z,98350.47
2019-03-08T14:58:11.196Z,98348.84
2019-03-08T15:03:20.178Z,98342.42
2019-03-08T15:08:25.308Z,98353.20
2019-03-08T15:13:31.153Z,98348.59
2019-03-08T15:18:36.995Z,98351.66
2019-03-08T15:23:42.564Z,98351.27
2019-03-08T15:28:48.139Z,98349.31
2019-03-08T15:33:53.360Z,98370.44
2019-03-08T15:38:59.136Z,98357.30
2019-03-08T15:44:06.329Z,98369.84
2019-03-08T15:49:12.124Z,98379.14
2019-03-08T15:54:17.369Z,98377.73
2019-03-08T15:59:22.570Z,98379.13
2019-03-08T16:04:28.276Z,98389.04
2019-03-08T16:09:33.792Z,98385.19
2019-03-08T16:14:40.029Z,98392.87
2019-03-08T16:19:45.893Z,98389.65
2019-03-08T16:24:51.554Z,98398.38
2019-03-08T16:29:56.534Z,98405.84
2019-03-08T16:35:01.538Z,98415.40
2019-03-08T16:40:28.388Z,98418.30
2019-03-08T16:45:56.206Z,98420.64
2019-03-08T16:51:20.647Z,98424.13
2019-03-08T16:56:43.924Z,98417.23
2019-03-08T17:02:27.928Z,98438.14
2019-03-08T17:08:01.488Z,98437.91
2019-03-08T17:13:14.237Z,98446.04
2019-03-08T17:18:31.077Z,98464.77
2019-03-08T17:23:50.045Z,98468.41
2019-03-08T17:29:14.395Z,98465.08
2019-03-08T17:34:37.703Z,98460.13
2019-03-08T17:39:51.440Z,98458.08
2019-03-08T17:45:05.751Z,98452.15
2019-03-08T17:50:33.456Z,98443.72
2019-03-08T17:55:56.590Z,98441.32
2019-03-08T18:01:14.593Z,98445.98
2019-03-08T18:06:26.779Z,98454.88
2019-03-08T18:11:56.976Z,98448.61
2019-03-08T18:17:39.953Z,98466.28
2019-03-08T18:22:53.739Z,98477.77
2019-03-08T18:28:18.347Z,98485.14
2019-03-08T18:33:33.561Z,98483.31
2019-03-08T18:39:14.399Z,98484.55
2019-03-08T18:44:48.379Z,98486.78
2019-03-08T18:50:11.895Z,98488.25
2019-03-08T18:55:26.067Z,98485.09
2019-03-08T19:00:59.355Z,98484.86
2019-03-08T19:06:36.009Z,98485.59
2019-03-08T19:12:03.089Z,98486.19
2019-03-08T19:17:37.080Z,98480.24
2019-03-08T19:22:48.975Z,98484.86
2019-03-08T19:28:13.398Z,98480.78
2019-03-08T19:33:43.941Z,98478.27
2019-03-08T19:39:17.676Z,98479.28
2019-03-08T19:44:35.301Z,98479.19
2019-03-08T19:50:08.990Z,98483.03
2019-03-08T19:55:21.426Z,98477.63
2019-03-08T20:00:44.113Z,98472.55
2019-03-08T20:06:07.381Z,98465.05
2019-03-08T20:11:22.373Z,98467.98
2019-03-08T20:16:51.080Z,98466.52
2019-03-08T20:22:02.371Z,98457.00
2019-03-08T20:27:41.761Z,98455.17
2019-03-08T20:33:06.316Z,98442.64
2019-03-08T20:38:33.686Z,98439.05
2019-03-08T20:44:01.655Z,98428.80
2019-03-08T20:49:07.392Z,98426.48
2019-03-08T20:54:13.235Z,98425.05
2019-03-08T20:59:18.971Z,98424.22
2019-03-08T21:04:24.360Z,98429.56
2019-03-08T21:09:29.849Z,98432.91
2019-03-08T21:14:35.407Z,98428.08
2019-03-08T21:19:41.967Z,98425.69
2019-03-08T21:24:48.082Z,98418.09
2019-03-08T21:29:53.672Z,98412.67
2019-03-08T21:34:59.535Z,98413.61
2019-03-08T21:40:05.283Z,98409.75
2019-03-08T21:45:12.453Z,98399.14
2019-03-08T21:50:18.098Z,98397.70
2019-03-08T21:55:25.313Z,98386.13
2019-03-08T22:00:31.861Z,98386.00
2019-03-08T22:05:38.781Z,98382.61
2019-03-08T22:11:00.056Z,98374.31
2019-03-08T22:16:05.927Z,98364.91
2019-03-08T22:21:11.609Z,98355.16
2019-03-08T22:26:17.180Z,98343.47
2019-03-08T22:31:23.009Z,98334.39
2019-03-08T22:36:28.380Z,98328.50
2019-03-08T22:41:35.633Z,98332.34
2019-03-08T22:46:45.188Z,98321.60
2019-03-08T22:53:09.974Z,98314.49
2019-03-08T22:58:16.325Z,98303.98
2019-03-08T23:03:22.321Z,98307.84
2019-03-08T23:08:27.745Z,98308.33
2019-03-08T23:13:34.118Z,98288.41
2019-03-08T23:18:40.074Z,98279.36
2019-03-08T23:23:46.319Z,98272.73
2019-03-08T23:29:00.897Z,98260.88
2019-03-08T23:34:06.477Z,98267.52
2019-03-08T23:39:12.963Z,98256.05
2019-03-08T23:44:18.338Z,98251.48
2019-03-08T23:49:23.888Z,98248.83
2019-03-08T23:54:29.572Z,98241.44
2019-03-08T23:59:35.273Z,98230.84
